sensor_id;sensor_type;location;lat;lon;timestamp;P1;durP1;ratioP1;P2;durP2;ratioP2
71806;SDS011;59655;42.590;23.364;2022-08-16T00:02:04;21.38;;;9.95;;
71806;SDS011;59655;42.590;23.364;2022-08-16T00:04:31;21.02;;;9.98;;
71806;SDS011;59655;42.590;23.364;2022-08-16T00:06:57;18.23;;;10.20;;
71806;SDS011;59655;42.590;23.364;2022-08-16T00:09:22;20.35;;;10.38;;
71806;SDS011;59655;42.590;23.364;2022-08-16T00:11:48;19.63;;;10.27;;
71806;SDS011;59655;42.590;23.364;2022-08-16T00:14:15;18.75;;;10.00;;
71806;SDS011;59655;42.590;23.364;2022-08-16T00:16:43;18.40;;;9.95;;
71806;SDS011;59655;42.590;23.364;2022-08-16T00:19:09;17.35;;;9.55;;
71806;SDS011;59655;42.590;23.364;2022-08-16T00:21:34;21.95;;;10.25;;
71806;SDS011;59655;42.590;23.364;2022-08-16T00:24:00;19.52;;;9.90;;
71806;SDS011;59655;42.590;23.364;2022-08-16T00:26:26;18.38;;;9.68;;
71806;SDS011;59655;42.590;23.364;2022-08-16T00:28:51;20.33;;;9.95;;
71806;SDS011;59655;42.590;23.364;2022-08-16T00:31:17;17.40;;;9.52;;
71806;SDS011;59655;42.590;23.364;2022-08-16T00:33:43;22.13;;;10.75;;
71806;SDS011;59655;42.590;23.364;2022-08-16T00:36:08;22.02;;;11.15;;
71806;SDS011;59655;42.590;23.364;2022-08-16T00:38:34;24.80;;;12.88;;
71806;SDS011;59655;42.590;23.364;2022-08-16T00:41:00;21.17;;;12.23;;
71806;SDS011;59655;42.590;23.364;2022-08-16T00:43:27;22.30;;;12.70;;
71806;SDS011;59655;42.590;23.364;2022-08-16T00:48:35;25.63;;;13.00;;
71806;SDS011;59655;42.590;23.364;2022-08-16T00:51:02;20.80;;;12.23;;
71806;SDS011;59655;42.590;23.364;2022-08-16T00:53:29;20.55;;;11.20;;
71806;SDS011;59655;42.590;23.364;2022-08-16T00:55:55;20.55;;;10.85;;
71806;SDS011;59655;42.590;23.364;2022-08-16T00:58:25;20.58;;;11.20;;
71806;SDS011;59655;42.590;23.364;2022-08-16T01:00:52;18.90;;;11.25;;
71806;SDS011;59655;42.590;23.364;2022-08-16T01:03:19;24.55;;;11.18;;
71806;SDS011;59655;42.590;23.364;2022-08-16T01:05:47;20.85;;;10.95;;
71806;SDS011;59655;42.590;23.364;2022-08-16T01:08:13;20.90;;;11.20;;
71806;SDS011;59655;42.590;23.364;2022-08-16T01:10:43;20.88;;;12.15;;
71806;SDS011;59655;42.590;23.364;2022-08-16T01:13:10;21.77;;;11.63;;
71806;SDS011;59655;42.590;23.364;2022-08-16T01:15:40;19.48;;;10.57;;
71806;SDS011;59655;42.590;23.364;2022-08-16T01:18:11;20.42;;;11.65;;
71806;SDS011;59655;42.590;23.364;2022-08-16T01:20:42;23.40;;;11.90;;
71806;SDS011;59655;42.590;23.364;2022-08-16T01:23:13;18.60;;;10.60;;
71806;SDS011;59655;42.590;23.364;2022-08-16T01:25:47;23.92;;;12.20;;
71806;SDS011;59655;42.590;23.364;2022-08-16T01:28:17;21.80;;;10.77;;
71806;SDS011;59655;42.590;23.364;2022-08-16T01:30:45;27.50;;;11.60;;
71806;SDS011;59655;42.590;23.364;2022-08-16T01:33:14;25.90;;;12.40;;
71806;SDS011;59655;42.590;23.364;2022-08-16T01:38:49;24.25;;;11.95;;
71806;SDS011;59655;42.590;23.364;2022-08-16T01:41:12;21.00;;;11.65;;
71806;SDS011;59655;42.590;23.364;2022-08-16T01:43:41;26.95;;;13.48;;
71806;SDS011;59655;42.590;23.364;2022-08-16T01:46:19;25.20;;;12.45;;
71806;SDS011;59655;42.590;23.364;2022-08-16T01:48:45;24.60;;;12.57;;
71806;SDS011;59655;42.590;23.364;2022-08-16T01:51:11;24.17;;;13.18;;
71806;SDS011;59655;42.590;23.364;2022-08-16T01:53:39;28.75;;;13.05;;
71806;SDS011;59655;42.590;23.364;2022-08-16T01:56:05;21.55;;;12.20;;
71806;SDS011;59655;42.590;23.364;2022-08-16T01:58:30;25.13;;;13.57;;
71806;SDS011;59655;42.590;23.364;2022-08-16T02:00:55;22.60;;;11.82;;
71806;SDS011;59655;42.590;23.364;2022-08-16T02:03:21;24.48;;;13.20;;
71806;SDS011;59655;42.590;23.364;2022-08-16T02:05:47;25.85;;;13.18;;
71806;SDS011;59655;42.590;23.364;2022-08-16T02:08:13;24.83;;;12.10;;
71806;SDS011;59655;42.590;23.364;2022-08-16T02:10:38;22.20;;;12.18;;
71806;SDS011;59655;42.590;23.364;2022-08-16T02:13:04;28.67;;;13.88;;
71806;SDS011;59655;42.590;23.364;2022-08-16T02:15:31;21.80;;;12.73;;
71806;SDS011;59655;42.590;23.364;2022-08-16T02:17:59;24.95;;;12.93;;
71806;SDS011;59655;42.590;23.364;2022-08-16T02:20:26;24.92;;;13.57;;
71806;SDS011;59655;42.590;23.364;2022-08-16T02:22:54;25.83;;;14.02;;
71806;SDS011;59655;42.590;23.364;2022-08-16T02:25:21;24.60;;;14.23;;
71806;SDS011;59655;42.590;23.364;2022-08-16T02:27:48;27.55;;;16.05;;
71806;SDS011;59655;42.590;23.364;2022-08-16T02:30:16;30.67;;;16.38;;
71806;SDS011;59655;42.590;23.364;2022-08-16T02:32:45;31.98;;;17.42;;
71806;SDS011;59655;42.590;23.364;2022-08-16T02:35:11;31.70;;;17.92;;
71806;SDS011;59655;42.590;23.364;2022-08-16T02:37:37;34.90;;;19.75;;
71806;SDS011;59655;42.590;23.364;2022-08-16T02:40:04;34.47;;;19.50;;
71806;SDS011;59655;42.590;23.364;2022-08-16T02:42:30;41.30;;;21.95;;
71806;SDS011;59655;42.590;23.364;2022-08-16T02:44:55;39.25;;;21.77;;
71806;SDS011;59655;42.590;23.364;2022-08-16T02:47:21;38.03;;;21.80;;
71806;SDS011;59655;42.590;23.364;2022-08-16T02:49:47;37.03;;;20.58;;
71806;SDS011;59655;42.590;23.364;2022-08-16T02:52:14;38.67;;;20.98;;
71806;SDS011;59655;42.590;23.364;2022-08-16T02:54:40;39.40;;;21.08;;
71806;SDS011;59655;42.590;23.364;2022-08-16T02:57:05;33.63;;;19.65;;
71806;SDS011;59655;42.590;23.364;2022-08-16T02:59:31;39.97;;;20.55;;
71806;SDS011;59655;42.590;23.364;2022-08-16T03:01:56;35.70;;;19.85;;
71806;SDS011;59655;42.590;23.364;2022-08-16T03:04:22;34.30;;;19.60;;
71806;SDS011;59655;42.590;23.364;2022-08-16T03:06:47;34.85;;;19.50;;
71806;SDS011;59655;42.590;23.364;2022-08-16T03:09:13;35.03;;;21.02;;
71806;SDS011;59655;42.590;23.364;2022-08-16T03:11:39;37.97;;;20.88;;
71806;SDS011;59655;42.590;23.364;2022-08-16T03:14:04;38.85;;;21.00;;
71806;SDS011;59655;42.590;23.364;2022-08-16T03:16:30;39.45;;;20.70;;
71806;SDS011;59655;42.590;23.364;2022-08-16T03:18:56;42.40;;;22.85;;
71806;SDS011;59655;42.590;23.364;2022-08-16T03:21:21;39.70;;;21.63;;
71806;SDS011;59655;42.590;23.364;2022-08-16T03:23:47;42.05;;;22.00;;
71806;SDS011;59655;42.590;23.364;2022-08-16T03:26:13;40.67;;;21.90;;
71806;SDS011;59655;42.590;23.364;2022-08-16T03:28:39;44.58;;;21.67;;
71806;SDS011;59655;42.590;23.364;2022-08-16T03:31:05;39.90;;;22.13;;
71806;SDS011;59655;42.590;23.364;2022-08-16T03:33:31;43.17;;;21.80;;
71806;SDS011;59655;42.590;23.364;2022-08-16T03:35:57;42.58;;;21.17;;
71806;SDS011;59655;42.590;23.364;2022-08-16T03:38:24;42.17;;;22.55;;
71806;SDS011;59655;42.590;23.364;2022-08-16T03:40:51;42.40;;;21.85;;
71806;SDS011;59655;42.590;23.364;2022-08-16T03:43:18;48.40;;;23.20;;
71806;SDS011;59655;42.590;23.364;2022-08-16T03:45:43;41.17;;;21.60;;
71806;SDS011;59655;42.590;23.364;2022-08-16T03:48:09;46.90;;;22.55;;
71806;SDS011;59655;42.590;23.364;2022-08-16T03:50:35;40.30;;;23.05;;
71806;SDS011;59655;42.590;23.364;2022-08-16T03:53:02;42.30;;;23.58;;
71806;SDS011;59655;42.590;23.364;2022-08-16T03:55:29;39.65;;;21.45;;
71806;SDS011;59655;42.590;23.364;2022-08-16T03:57:54;40.83;;;21.55;;
71806;SDS011;59655;42.590;23.364;2022-08-16T04:00:21;39.90;;;22.13;;
71806;SDS011;59655;42.590;23.364;2022-08-16T04:02:49;48.90;;;21.05;;
71806;SDS011;59655;42.590;23.364;2022-08-16T04:05:15;37.58;;;20.63;;
71806;SDS011;59655;42.590;23.364;2022-08-16T04:07:42;45.15;;;21.48;;
71806;SDS011;59655;42.590;23.364;2022-08-16T04:10:08;42.50;;;20.10;;
71806;SDS011;59655;42.590;23.364;2022-08-16T04:12:35;50.92;;;20.80;;
71806;SDS011;59655;42.590;23.364;2022-08-16T04:15:02;48.95;;;22.48;;
71806;SDS011;59655;42.590;23.364;2022-08-16T04:17:29;44.13;;;21.92;;
71806;SDS011;59655;42.590;23.364;2022-08-16T04:19:55;45.15;;;20.30;;
71806;SDS011;59655;42.590;23.364;2022-08-16T04:22:21;49.55;;;21.90;;
71806;SDS011;59655;42.590;23.364;2022-08-16T04:24:47;38.78;;;21.65;;
71806;SDS011;59655;42.590;23.364;2022-08-16T04:27:12;35.30;;;19.33;;
71806;SDS011;59655;42.590;23.364;2022-08-16T04:29:38;31.63;;;18.27;;
71806;SDS011;59655;42.590;23.364;2022-08-16T04:32:04;35.63;;;18.50;;
71806;SDS011;59655;42.590;23.364;2022-08-16T04:34:30;37.38;;;19.40;;
71806;SDS011;59655;42.590;23.364;2022-08-16T04:36:58;50.25;;;21.83;;
71806;SDS011;59655;42.590;23.364;2022-08-16T04:39:25;44.58;;;21.63;;
71806;SDS011;59655;42.590;23.364;2022-08-16T04:41:51;54.67;;;23.20;;
71806;SDS011;59655;42.590;23.364;2022-08-16T04:44:17;50.17;;;26.75;;
71806;SDS011;59655;42.590;23.364;2022-08-16T04:46:43;49.13;;;21.52;;
71806;SDS011;59655;42.590;23.364;2022-08-16T04:49:08;40.13;;;20.75;;
71806;SDS011;59655;42.590;23.364;2022-08-16T04:51:36;45.85;;;21.35;;
71806;SDS011;59655;42.590;23.364;2022-08-16T04:54:02;46.22;;;21.23;;
71806;SDS011;59655;42.590;23.364;2022-08-16T04:56:28;46.20;;;22.15;;
71806;SDS011;59655;42.590;23.364;2022-08-16T04:58:53;45.88;;;21.08;;
71806;SDS011;59655;42.590;23.364;2022-08-16T05:01:19;46.28;;;21.58;;
71806;SDS011;59655;42.590;23.364;2022-08-16T05:03:45;44.40;;;21.55;;
71806;SDS011;59655;42.590;23.364;2022-08-16T05:06:11;44.53;;;19.73;;
71806;SDS011;59655;42.590;23.364;2022-08-16T05:08:37;56.70;;;24.42;;
71806;SDS011;59655;42.590;23.364;2022-08-16T05:11:04;49.25;;;22.17;;
71806;SDS011;59655;42.590;23.364;2022-08-16T05:15:57;35.65;;;18.90;;
71806;SDS011;59655;42.590;23.364;2022-08-16T05:18:22;34.70;;;18.67;;
71806;SDS011;59655;42.590;23.364;2022-08-16T05:20:48;36.25;;;17.48;;
71806;SDS011;59655;42.590;23.364;2022-08-16T05:23:13;37.38;;;18.08;;
71806;SDS011;59655;42.590;23.364;2022-08-16T05:28:06;42.25;;;19.60;;
71806;SDS011;59655;42.590;23.364;2022-08-16T05:33:00;33.53;;;18.35;;
71806;SDS011;59655;42.590;23.364;2022-08-16T05:35:25;38.70;;;20.02;;
71806;SDS011;59655;42.590;23.364;2022-08-16T05:37:50;35.08;;;18.75;;
71806;SDS011;59655;42.590;23.364;2022-08-16T05:40:16;36.10;;;19.00;;
71806;SDS011;59655;42.590;23.364;2022-08-16T05:42:41;34.13;;;18.92;;
71806;SDS011;59655;42.590;23.364;2022-08-16T05:45:07;35.15;;;19.05;;
71806;SDS011;59655;42.590;23.364;2022-08-16T05:47:33;31.88;;;18.35;;
71806;SDS011;59655;42.590;23.364;2022-08-16T05:49:59;36.08;;;19.02;;
71806;SDS011;59655;42.590;23.364;2022-08-16T05:52:24;36.60;;;18.75;;
71806;SDS011;59655;42.590;23.364;2022-08-16T05:54:50;34.97;;;17.85;;
71806;SDS011;59655;42.590;23.364;2022-08-16T05:57:16;40.75;;;20.08;;
71806;SDS011;59655;42.590;23.364;2022-08-16T05:59:43;43.85;;;19.33;;
71806;SDS011;59655;42.590;23.364;2022-08-16T06:02:11;46.45;;;19.42;;
71806;SDS011;59655;42.590;23.364;2022-08-16T06:04:36;48.97;;;18.70;;
71806;SDS011;59655;42.590;23.364;2022-08-16T06:07:02;37.70;;;18.60;;
71806;SDS011;59655;42.590;23.364;2022-08-16T06:09:30;42.53;;;18.95;;
71806;SDS011;59655;42.590;23.364;2022-08-16T06:11:56;41.25;;;20.52;;
71806;SDS011;59655;42.590;23.364;2022-08-16T06:14:24;40.47;;;19.05;;
71806;SDS011;59655;42.590;23.364;2022-08-16T06:16:50;38.03;;;19.50;;
71806;SDS011;59655;42.590;23.364;2022-08-16T06:19:17;45.80;;;20.10;;
71806;SDS011;59655;42.590;23.364;2022-08-16T06:21:42;40.67;;;19.27;;
71806;SDS011;59655;42.590;23.364;2022-08-16T06:24:08;41.90;;;19.58;;
71806;SDS011;59655;42.590;23.364;2022-08-16T06:26:33;39.28;;;20.55;;
71806;SDS011;59655;42.590;23.364;2022-08-16T06:28:59;40.58;;;21.00;;
71806;SDS011;59655;42.590;23.364;2022-08-16T06:31:24;40.67;;;20.63;;
71806;SDS011;59655;42.590;23.364;2022-08-16T06:33:50;44.55;;;22.20;;
71806;SDS011;59655;42.590;23.364;2022-08-16T06:36:15;36.83;;;20.70;;
71806;SDS011;59655;42.590;23.364;2022-08-16T06:38:41;36.03;;;19.73;;
71806;SDS011;59655;42.590;23.364;2022-08-16T06:41:07;33.15;;;19.25;;
71806;SDS011;59655;42.590;23.364;2022-08-16T06:43:33;35.20;;;18.35;;
71806;SDS011;59655;42.590;23.364;2022-08-16T06:46:00;35.20;;;18.52;;
71806;SDS011;59655;42.590;23.364;2022-08-16T06:48:26;34.20;;;18.48;;
71806;SDS011;59655;42.590;23.364;2022-08-16T06:50:52;29.33;;;17.20;;
71806;SDS011;59655;42.590;23.364;2022-08-16T06:53:18;32.15;;;19.35;;
71806;SDS011;59655;42.590;23.364;2022-08-16T06:55:43;37.80;;;20.05;;
71806;SDS011;59655;42.590;23.364;2022-08-16T06:58:09;35.38;;;19.77;;
71806;SDS011;59655;42.590;23.364;2022-08-16T07:00:36;34.25;;;18.23;;
71806;SDS011;59655;42.590;23.364;2022-08-16T07:03:02;35.05;;;19.58;;
71806;SDS011;59655;42.590;23.364;2022-08-16T07:05:29;33.92;;;18.65;;
71806;SDS011;59655;42.590;23.364;2022-08-16T07:07:55;36.65;;;20.20;;
71806;SDS011;59655;42.590;23.364;2022-08-16T07:10:21;32.13;;;18.13;;
71806;SDS011;59655;42.590;23.364;2022-08-16T07:12:47;33.65;;;18.60;;
71806;SDS011;59655;42.590;23.364;2022-08-16T07:15:14;32.97;;;18.73;;
71806;SDS011;59655;42.590;23.364;2022-08-16T07:17:41;32.35;;;16.90;;
71806;SDS011;59655;42.590;23.364;2022-08-16T07:20:09;32.83;;;18.27;;
71806;SDS011;59655;42.590;23.364;2022-08-16T07:22:37;32.45;;;18.00;;
71806;SDS011;59655;42.590;23.364;2022-08-16T07:25:03;30.98;;;17.50;;
71806;SDS011;59655;42.590;23.364;2022-08-16T07:27:30;33.13;;;17.65;;
71806;SDS011;59655;42.590;23.364;2022-08-16T07:29:56;32.67;;;17.98;;
71806;SDS011;59655;42.590;23.364;2022-08-16T07:32:21;33.38;;;17.77;;
71806;SDS011;59655;42.590;23.364;2022-08-16T07:34:47;32.25;;;18.33;;
71806;SDS011;59655;42.590;23.364;2022-08-16T07:37:12;34.30;;;18.60;;
71806;SDS011;59655;42.590;23.364;2022-08-16T07:39:38;30.95;;;17.20;;
71806;SDS011;59655;42.590;23.364;2022-08-16T07:42:04;33.92;;;19.23;;
71806;SDS011;59655;42.590;23.364;2022-08-16T07:44:30;31.55;;;17.30;;
71806;SDS011;59655;42.590;23.364;2022-08-16T07:46:55;32.47;;;17.77;;
71806;SDS011;59655;42.590;23.364;2022-08-16T07:49:21;35.55;;;17.17;;
71806;SDS011;59655;42.590;23.364;2022-08-16T07:51:47;31.27;;;18.15;;
71806;SDS011;59655;42.590;23.364;2022-08-16T07:54:13;34.83;;;18.13;;
71806;SDS011;59655;42.590;23.364;2022-08-16T07:56:39;33.22;;;18.20;;
71806;SDS011;59655;42.590;23.364;2022-08-16T07:59:05;43.70;;;18.80;;
71806;SDS011;59655;42.590;23.364;2022-08-16T08:01:31;39.47;;;18.58;;
71806;SDS011;59655;42.590;23.364;2022-08-16T08:03:57;42.20;;;18.77;;
71806;SDS011;59655;42.590;23.364;2022-08-16T08:06:23;33.25;;;17.70;;
71806;SDS011;59655;42.590;23.364;2022-08-16T08:08:54;32.70;;;17.52;;
71806;SDS011;59655;42.590;23.364;2022-08-16T08:11:21;33.65;;;18.15;;
71806;SDS011;59655;42.590;23.364;2022-08-16T08:13:48;34.70;;;17.92;;
71806;SDS011;59655;42.590;23.364;2022-08-16T08:16:14;39.03;;;18.17;;
71806;SDS011;59655;42.590;23.364;2022-08-16T08:18:39;35.45;;;19.88;;
71806;SDS011;59655;42.590;23.364;2022-08-16T08:21:05;37.53;;;18.30;;
71806;SDS011;59655;42.590;23.364;2022-08-16T08:23:33;43.97;;;19.35;;
71806;SDS011;59655;42.590;23.364;2022-08-16T08:26:03;51.42;;;19.60;;
71806;SDS011;59655;42.590;23.364;2022-08-16T08:28:30;38.72;;;20.55;;
71806;SDS011;59655;42.590;23.364;2022-08-16T08:30:56;40.53;;;19.70;;
71806;SDS011;59655;42.590;23.364;2022-08-16T08:33:24;48.60;;;19.33;;
71806;SDS011;59655;42.590;23.364;2022-08-16T08:35:50;38.53;;;17.67;;
71806;SDS011;59655;42.590;23.364;2022-08-16T08:38:17;34.00;;;18.90;;
71806;SDS011;59655;42.590;23.364;2022-08-16T08:40:43;40.55;;;20.70;;
71806;SDS011;59655;42.590;23.364;2022-08-16T08:43:09;37.45;;;19.60;;
71806;SDS011;59655;42.590;23.364;2022-08-16T08:45:37;41.60;;;20.95;;
71806;SDS011;59655;42.590;23.364;2022-08-16T08:48:03;46.40;;;20.70;;
71806;SDS011;59655;42.590;23.364;2022-08-16T08:50:29;49.00;;;20.25;;
71806;SDS011;59655;42.590;23.364;2022-08-16T08:52:55;40.53;;;19.92;;
71806;SDS011;59655;42.590;23.364;2022-08-16T08:55:21;40.20;;;20.08;;
71806;SDS011;59655;42.590;23.364;2022-08-16T08:57:47;39.08;;;20.73;;
71806;SDS011;59655;42.590;23.364;2022-08-16T09:00:14;37.10;;;19.52;;
71806;SDS011;59655;42.590;23.364;2022-08-16T09:02:41;33.83;;;18.40;;
71806;SDS011;59655;42.590;23.364;2022-08-16T09:05:07;41.63;;;20.38;;
71806;SDS011;59655;42.590;23.364;2022-08-16T09:07:33;36.53;;;19.75;;
71806;SDS011;59655;42.590;23.364;2022-08-16T09:09:59;44.15;;;18.27;;
71806;SDS011;59655;42.590;23.364;2022-08-16T09:12:24;41.65;;;19.65;;
71806;SDS011;59655;42.590;23.364;2022-08-16T09:14:51;35.50;;;17.58;;
71806;SDS011;59655;42.590;23.364;2022-08-16T09:17:16;35.40;;;17.50;;
71806;SDS011;59655;42.590;23.364;2022-08-16T09:19:42;39.15;;;18.15;;
71806;SDS011;59655;42.590;23.364;2022-08-16T09:22:08;33.90;;;18.23;;
71806;SDS011;59655;42.590;23.364;2022-08-16T09:24:34;36.30;;;18.85;;
71806;SDS011;59655;42.590;23.364;2022-08-16T09:27:00;34.35;;;18.13;;
71806;SDS011;59655;42.590;23.364;2022-08-16T09:29:26;35.03;;;17.00;;
71806;SDS011;59655;42.590;23.364;2022-08-16T09:31:53;34.80;;;17.60;;
71806;SDS011;59655;42.590;23.364;2022-08-16T09:34:19;33.00;;;17.52;;
71806;SDS011;59655;42.590;23.364;2022-08-16T09:36:44;34.53;;;16.58;;
71806;SDS011;59655;42.590;23.364;2022-08-16T09:39:10;33.50;;;16.92;;
71806;SDS011;59655;42.590;23.364;2022-08-16T09:41:35;31.80;;;15.93;;
71806;SDS011;59655;42.590;23.364;2022-08-16T09:44:01;29.60;;;16.05;;
71806;SDS011;59655;42.590;23.364;2022-08-16T09:46:28;32.22;;;17.00;;
71806;SDS011;59655;42.590;23.364;2022-08-16T09:48:55;30.45;;;16.33;;
71806;SDS011;59655;42.590;23.364;2022-08-16T09:51:22;32.97;;;16.65;;
71806;SDS011;59655;42.590;23.364;2022-08-16T09:53:50;30.27;;;15.85;;
71806;SDS011;59655;42.590;23.364;2022-08-16T09:56:30;31.27;;;16.38;;
71806;SDS011;59655;42.590;23.364;2022-08-16T09:59:00;29.23;;;15.45;;
71806;SDS011;59655;42.590;23.364;2022-08-16T10:01:28;33.13;;;16.13;;
71806;SDS011;59655;42.590;23.364;2022-08-16T10:03:55;30.83;;;16.58;;
71806;SDS011;59655;42.590;23.364;2022-08-16T10:06:21;47.60;;;20.13;;
71806;SDS011;59655;42.590;23.364;2022-08-16T10:08:48;33.13;;;18.50;;
71806;SDS011;59655;42.590;23.364;2022-08-16T10:11:14;24.20;;;16.02;;
71806;SDS011;59655;42.590;23.364;2022-08-16T10:13:58;27.40;;;15.82;;
71806;SDS011;59655;42.590;23.364;2022-08-16T10:16:24;27.98;;;16.02;;
71806;SDS011;59655;42.590;23.364;2022-08-16T10:18:50;43.20;;;18.70;;
71806;SDS011;59655;42.590;23.364;2022-08-16T10:21:15;29.58;;;15.57;;
71806;SDS011;59655;42.590;23.364;2022-08-16T10:23:42;30.15;;;17.02;;
71806;SDS011;59655;42.590;23.364;2022-08-16T10:26:08;37.47;;;16.55;;
71806;SDS011;59655;42.590;23.364;2022-08-16T10:28:34;33.90;;;18.25;;
71806;SDS011;59655;42.590;23.364;2022-08-16T10:31:00;30.85;;;17.05;;
71806;SDS011;59655;42.590;23.364;2022-08-16T10:33:26;30.33;;;16.83;;
71806;SDS011;59655;42.590;23.364;2022-08-16T10:35:53;28.60;;;17.17;;
71806;SDS011;59655;42.590;23.364;2022-08-16T10:38:18;31.35;;;17.20;;
71806;SDS011;59655;42.590;23.364;2022-08-16T10:40:44;30.52;;;15.10;;
71806;SDS011;59655;42.590;23.364;2022-08-16T10:43:10;30.02;;;14.95;;
71806;SDS011;59655;42.590;23.364;2022-08-16T10:45:36;26.90;;;15.40;;
71806;SDS011;59655;42.590;23.364;2022-08-16T10:48:02;27.13;;;16.90;;
71806;SDS011;59655;42.590;23.364;2022-08-16T10:50:30;22.63;;;11.02;;
71806;SDS011;59655;42.590;23.364;2022-08-16T10:52:56;26.83;;;11.27;;
71806;SDS011;59655;42.590;23.364;2022-08-16T10:55:22;21.83;;;11.40;;
71806;SDS011;59655;42.590;23.364;2022-08-16T10:57:48;17.23;;;11.05;;
71806;SDS011;59655;42.590;23.364;2022-08-16T11:00:14;18.48;;;9.73;;
71806;SDS011;59655;42.590;23.364;2022-08-16T11:02:41;17.42;;;9.82;;
71806;SDS011;59655;42.590;23.364;2022-08-16T11:05:08;20.55;;;10.30;;
71806;SDS011;59655;42.590;23.364;2022-08-16T11:07:39;17.83;;;9.55;;
71806;SDS011;59655;42.590;23.364;2022-08-16T11:10:14;15.93;;;9.90;;
71806;SDS011;59655;42.590;23.364;2022-08-16T11:12:41;16.73;;;9.48;;
71806;SDS011;59655;42.590;23.364;2022-08-16T11:15:07;22.88;;;10.38;;
71806;SDS011;59655;42.590;23.364;2022-08-16T11:17:33;19.58;;;10.65;;
71806;SDS011;59655;42.590;23.364;2022-08-16T11:19:59;24.70;;;11.30;;
71806;SDS011;59655;42.590;23.364;2022-08-16T11:22:25;17.77;;;10.07;;
71806;SDS011;59655;42.590;23.364;2022-08-16T11:24:50;22.83;;;11.18;;
71806;SDS011;59655;42.590;23.364;2022-08-16T11:27:17;21.52;;;12.73;;
71806;SDS011;59655;42.590;23.364;2022-08-16T11:29:45;23.08;;;14.25;;
71806;SDS011;59655;42.590;23.364;2022-08-16T11:32:11;27.60;;;14.10;;
71806;SDS011;59655;42.590;23.364;2022-08-16T11:34:37;23.25;;;13.60;;
71806;SDS011;59655;42.590;23.364;2022-08-16T11:37:02;23.50;;;11.48;;
71806;SDS011;59655;42.590;23.364;2022-08-16T11:39:28;25.00;;;12.20;;
71806;SDS011;59655;42.590;23.364;2022-08-16T11:41:54;27.30;;;13.80;;
71806;SDS011;59655;42.590;23.364;2022-08-16T11:44:20;20.38;;;13.55;;
71806;SDS011;59655;42.590;23.364;2022-08-16T11:46:46;28.33;;;13.45;;
71806;SDS011;59655;42.590;23.364;2022-08-16T11:49:11;21.52;;;11.63;;
71806;SDS011;59655;42.590;23.364;2022-08-16T11:51:37;21.40;;;12.48;;
71806;SDS011;59655;42.590;23.364;2022-08-16T11:54:03;23.90;;;12.30;;
71806;SDS011;59655;42.590;23.364;2022-08-16T11:56:29;20.17;;;12.18;;
71806;SDS011;59655;42.590;23.364;2022-08-16T11:58:54;21.08;;;11.20;;
71806;SDS011;59655;42.590;23.364;2022-08-16T12:01:20;17.60;;;10.48;;
71806;SDS011;59655;42.590;23.364;2022-08-16T12:03:45;22.90;;;10.63;;
71806;SDS011;59655;42.590;23.364;2022-08-16T12:06:12;17.55;;;10.82;;
71806;SDS011;59655;42.590;23.364;2022-08-16T12:08:41;20.05;;;10.57;;
71806;SDS011;59655;42.590;23.364;2022-08-16T12:11:08;20.45;;;10.27;;
71806;SDS011;59655;42.590;23.364;2022-08-16T12:13:34;24.30;;;11.50;;
71806;SDS011;59655;42.590;23.364;2022-08-16T12:16:00;21.40;;;10.95;;
71806;SDS011;59655;42.590;23.364;2022-08-16T12:18:26;19.40;;;10.68;;
71806;SDS011;59655;42.590;23.364;2022-08-16T12:20:52;20.83;;;10.43;;
71806;SDS011;59655;42.590;23.364;2022-08-16T12:23:18;22.13;;;10.13;;
71806;SDS011;59655;42.590;23.364;2022-08-16T12:25:43;17.70;;;9.02;;
71806;SDS011;59655;42.590;23.364;2022-08-16T12:28:09;19.75;;;10.45;;
71806;SDS011;59655;42.590;23.364;2022-08-16T12:30:36;14.80;;;9.10;;
71806;SDS011;59655;42.590;23.364;2022-08-16T12:33:06;18.45;;;9.90;;
71806;SDS011;59655;42.590;23.364;2022-08-16T12:35:36;19.92;;;10.30;;
71806;SDS011;59655;42.590;23.364;2022-08-16T12:38:03;18.67;;;9.13;;
71806;SDS011;59655;42.590;23.364;2022-08-16T12:40:31;24.83;;;10.98;;
71806;SDS011;59655;42.590;23.364;2022-08-16T12:43:05;20.52;;;9.68;;
71806;SDS011;59655;42.590;23.364;2022-08-16T12:45:33;23.20;;;10.82;;
71806;SDS011;59655;42.590;23.364;2022-08-16T12:48:01;16.88;;;10.00;;
71806;SDS011;59655;42.590;23.364;2022-08-16T12:50:45;17.98;;;10.13;;
71806;SDS011;59655;42.590;23.364;2022-08-16T12:53:12;19.83;;;10.13;;
71806;SDS011;59655;42.590;23.364;2022-08-16T12:55:37;18.00;;;9.40;;
71806;SDS011;59655;42.590;23.364;2022-08-16T12:58:03;19.55;;;9.80;;
71806;SDS011;59655;42.590;23.364;2022-08-16T13:00:30;18.15;;;10.02;;
71806;SDS011;59655;42.590;23.364;2022-08-16T13:02:57;20.63;;;10.52;;
71806;SDS011;59655;42.590;23.364;2022-08-16T13:05:24;16.48;;;9.25;;
71806;SDS011;59655;42.590;23.364;2022-08-16T13:07:50;25.13;;;10.20;;
71806;SDS011;59655;42.590;23.364;2022-08-16T13:10:17;13.98;;;7.72;;
71806;SDS011;59655;42.590;23.364;2022-08-16T13:12:45;15.00;;;7.60;;
71806;SDS011;59655;42.590;23.364;2022-08-16T13:15:17;14.50;;;7.45;;
71806;SDS011;59655;42.590;23.364;2022-08-16T13:17:45;17.98;;;7.43;;
71806;SDS011;59655;42.590;23.364;2022-08-16T13:20:15;17.92;;;8.27;;
71806;SDS011;59655;42.590;23.364;2022-08-16T13:22:45;20.85;;;8.25;;
71806;SDS011;59655;42.590;23.364;2022-08-16T13:25:19;14.45;;;8.10;;
71806;SDS011;59655;42.590;23.364;2022-08-16T13:27:46;18.52;;;8.73;;
71806;SDS011;59655;42.590;23.364;2022-08-16T13:30:13;19.38;;;8.57;;
71806;SDS011;59655;42.590;23.364;2022-08-16T13:32:38;13.10;;;7.43;;
71806;SDS011;59655;42.590;23.364;2022-08-16T13:35:04;14.02;;;7.40;;
71806;SDS011;59655;42.590;23.364;2022-08-16T13:37:30;17.38;;;6.97;;
71806;SDS011;59655;42.590;23.364;2022-08-16T13:39:56;15.10;;;5.53;;
71806;SDS011;59655;42.590;23.364;2022-08-16T13:42:22;14.98;;;6.07;;
71806;SDS011;59655;42.590;23.364;2022-08-16T13:44:49;14.57;;;5.75;;
71806;SDS011;59655;42.590;23.364;2022-08-16T13:47:15;13.20;;;6.10;;
71806;SDS011;59655;42.590;23.364;2022-08-16T13:49:40;18.05;;;6.05;;
71806;SDS011;59655;42.590;23.364;2022-08-16T13:52:06;14.50;;;5.40;;
71806;SDS011;59655;42.590;23.364;2022-08-16T13:54:32;10.45;;;6.00;;
71806;SDS011;59655;42.590;23.364;2022-08-16T13:56:58;15.25;;;6.95;;
71806;SDS011;59655;42.590;23.364;2022-08-16T13:59:24;13.57;;;5.63;;
71806;SDS011;59655;42.590;23.364;2022-08-16T14:01:50;11.57;;;6.22;;
71806;SDS011;59655;42.590;23.364;2022-08-16T14:04:18;13.27;;;6.30;;
71806;SDS011;59655;42.590;23.364;2022-08-16T14:06:44;17.25;;;5.80;;
71806;SDS011;59655;42.590;23.364;2022-08-16T14:09:09;13.90;;;5.47;;
71806;SDS011;59655;42.590;23.364;2022-08-16T14:11:36;11.85;;;6.47;;
71806;SDS011;59655;42.590;23.364;2022-08-16T14:14:01;13.10;;;5.88;;
71806;SDS011;59655;42.590;23.364;2022-08-16T14:16:28;14.95;;;6.53;;
71806;SDS011;59655;42.590;23.364;2022-08-16T14:18:53;14.98;;;5.97;;
71806;SDS011;59655;42.590;23.364;2022-08-16T14:21:19;13.32;;;5.82;;